createdAt,value
2018-09-29T00:00:26.983Z,7.40
2018-09-29T00:01:26.961Z,7.42
2018-09-29T00:02:26.942Z,7.35
2018-09-29T00:03:26.913Z,7.29
2018-09-29T00:04:26.891Z,7.38
2018-09-29T00:05:26.869Z,7.45
2018-09-29T00:06:26.863Z,7.67
2018-09-29T00:07:26.850Z,7.81
2018-09-29T00:08:26.837Z,7.92
2018-09-29T00:09:26.782Z,8.02
2018-09-29T00:10:26.767Z,8.11
2018-09-29T00:11:26.743Z,8.47
2018-09-29T00:12:26.721Z,8.62
2018-09-29T00:13:26.697Z,8.81
2018-09-29T00:14:26.676Z,8.91
2018-09-29T00:15:26.656Z,9.01
2018-09-29T00:16:26.651Z,9.13
2018-09-29T00:17:26.607Z,9.25
2018-09-29T00:18:26.592Z,9.32
2018-09-29T00:19:26.570Z,9.39
2018-09-29T00:20:26.543Z,9.38
2018-09-29T00:21:26.520Z,9.38
2018-09-29T00:22:26.501Z,9.30
2018-09-29T00:23:26.476Z,9.23
2018-09-29T00:24:26.469Z,8.99
2018-09-29T00:25:26.437Z,8.96
2018-09-29T00:26:26.418Z,8.86
2018-09-29T00:27:26.395Z,8.58
2018-09-29T00:28:26.367Z,8.60
2018-09-29T00:29:26.353Z,8.54
2018-09-29T00:30:26.340Z,8.44
2018-09-29T00:31:26.302Z,8.37
2018-09-29T00:32:26.286Z,8.36
2018-09-29T00:33:26.257Z,8.30
2018-09-29T00:34:26.245Z,8.36
2018-09-29T00:35:26.217Z,8.25
2018-09-29T00:36:26.193Z,8.11
2018-09-29T00:37:26.182Z,8.04
2018-09-29T00:38:26.168Z,7.94
2018-09-29T00:39:26.138Z,7.81
2018-09-29T00:40:26.106Z,7.62
2018-09-29T00:41:26.093Z,7.41
2018-09-29T00:42:26.074Z,7.26
2018-09-29T00:43:26.042Z,7.08
2018-09-29T00:44:26.023Z,6.94
2018-09-29T00:45:25.994Z,6.97
2018-09-29T00:46:26.005Z,6.79
2018-09-29T00:47:25.953Z,6.76
2018-09-29T00:48:25.933Z,6.71
2018-09-29T00:49:25.911Z,6.62
2018-09-29T00:50:25.897Z,6.69
2018-09-29T00:51:25.865Z,6.62
2018-09-29T00:52:25.849Z,6.53
2018-09-29T00:53:25.826Z,6.48
2018-09-29T00:54:25.802Z,6.38
2018-09-29T00:55:25.797Z,6.35
2018-09-29T00:56:25.760Z,6.33
2018-09-29T00:57:25.741Z,6.33
2018-09-29T00:58:25.715Z,6.30
2018-09-29T00:59:25.696Z,6.18
2018-09-29T01:00:25.667Z,6.21
2018-09-29T01:01:25.657Z,6.09
2018-09-29T01:02:25.632Z,6.01
2018-09-29T01:03:25.606Z,5.96
2018-09-29T01:04:25.581Z,5.95
2018-09-29T01:05:25.572Z,5.85
2018-09-29T01:06:25.532Z,5.85
2018-09-29T01:07:25.512Z,5.75
2018-09-29T01:08:25.489Z,5.81
2018-09-29T01:09:25.464Z,5.88
2018-09-29T01:10:25.442Z,5.68
2018-09-29T01:11:25.432Z,5.63
2018-09-29T01:12:25.403Z,5.55
2018-09-29T01:13:25.397Z,5.63
2018-09-29T01:14:25.359Z,5.55
2018-09-29T01:15:25.337Z,5.57
2018-09-29T01:16:25.319Z,5.56
2018-09-29T01:17:25.302Z,5.40
2018-09-29T01:18:25.279Z,5.37
2018-09-29T01:19:25.247Z,5.38
2018-09-29T01:20:25.225Z,5.28
2018-09-29T01:21:25.206Z,5.14
2018-09-29T01:22:25.186Z,5.28
2018-09-29T01:23:25.154Z,5.25
2018-09-29T01:24:25.132Z,5.22
2018-09-29T01:25:25.104Z,5.27
2018-09-29T01:26:25.104Z,5.20
2018-09-29T01:27:25.059Z,5.13
2018-09-29T01:28:25.037Z,5.12
2018-09-29T01:29:25.024Z,5.12
2018-09-29T01:30:24.992Z,5.09
2018-09-29T01:31:24.970Z,5.12
2018-09-29T01:32:24.953Z,5.05
2018-09-29T01:33:24.944Z,4.98
2018-09-29T01:34:24.906Z,4.96
2018-09-29T01:35:24.903Z,4.83
2018-09-29T01:36:24.858Z,4.77
2018-09-29T01:37:24.835Z,4.77
2018-09-29T01:38:24.810Z,4.62
2018-09-29T01:39:24.791Z,4.65
2018-09-29T01:40:24.775Z,4.72
2018-09-29T01:41:24.756Z,4.64
2018-09-29T01:42:24.725Z,4.73
2018-09-29T01:43:24.702Z,4.67
2018-09-29T01:44:24.677Z,4.54
2018-09-29T01:45:24.657Z,4.57
2018-09-29T01:46:24.632Z,4.58
2018-09-29T01:47:24.606Z,4.54
2018-09-29T01:48:24.584Z,4.46
2018-09-29T01:49:24.568Z,4.50
2018-09-29T01:50:24.534Z,4.51
2018-09-29T01:51:24.514Z,4.44
2018-09-29T01:52:24.489Z,4.42
2018-09-29T01:53:24.495Z,4.36
2018-09-29T01:54:24.450Z,4.25
2018-09-29T01:55:24.421Z,4.25
2018-09-29T01:56:24.405Z,4.36
2018-09-29T01:57:24.380Z,4.51
2018-09-29T01:58:24.357Z,4.50
2018-09-29T01:59:24.331Z,4.55
2018-09-29T02:00:24.305Z,4.59
2018-09-29T02:01:24.289Z,4.59
2018-09-29T02:02:24.265Z,4.58
2018-09-29T02:03:24.239Z,4.50
2018-09-29T02:04:24.219Z,4.47
2018-09-29T02:05:24.190Z,4.37
2018-09-29T02:06:24.174Z,4.34
2018-09-29T02:07:24.167Z,4.28
2018-09-29T02:08:24.125Z,4.18
2018-09-29T02:09:24.118Z,4.19
2018-09-29T02:10:24.089Z,4.15
2018-09-29T02:11:24.053Z,4.06
2018-09-29T02:12:24.034Z,4.03
2018-09-29T02:13:24.019Z,3.96
2018-09-29T02:14:23.990Z,3.98
2018-09-29T02:15:23.968Z,3.94
2018-09-29T02:16:23.935Z,3.88
2018-09-29T02:17:23.912Z,3.96
2018-09-29T02:18:23.889Z,3.79
2018-09-29T02:19:23.870Z,3.85
2018-09-29T02:20:23.849Z,3.78
2018-09-29T02:21:23.825Z,3.68
2018-09-29T02:22:23.818Z,3.75
2018-09-29T02:23:23.777Z,3.75
2018-09-29T02:24:23.755Z,3.76
2018-09-29T02:25:23.732Z,3.65
2018-09-29T02:26:23.710Z,3.60
2018-09-29T02:27:23.694Z,3.68
2018-09-29T02:28:23.655Z,3.76
2018-09-29T02:29:23.636Z,3.72
2018-09-29T02:30:23.617Z,3.67
2018-09-29T02:31:23.596Z,3.64
2018-09-29T02:32:23.569Z,3.67
2018-09-29T02:33:23.543Z,3.61
2018-09-29T02:34:23.522Z,3.60
2018-09-29T02:35:23.491Z,3.46
2018-09-29T02:36:23.484Z,3.46
2018-09-29T02:37:23.452Z,3.60
2018-09-29T02:38:23.433Z,3.58
2018-09-29T02:39:23.401Z,3.43
2018-09-29T02:40:23.383Z,3.43
2018-09-29T02:41:23.360Z,3.52
2018-09-29T02:42:23.338Z,3.34
2018-09-29T02:43:23.335Z,3.34
2018-09-29T02:44:23.297Z,3.33
2018-09-29T02:45:23.271Z,3.23
2018-09-29T02:46:23.245Z,3.20
2018-09-29T02:47:23.228Z,3.21
2018-09-29T02:48:23.191Z,3.24
2018-09-29T02:49:23.167Z,3.24
2018-09-29T02:50:23.150Z,3.27
2018-09-29T02:51:23.128Z,3.27
2018-09-29T02:52:23.096Z,3.20
2018-09-29T02:53:23.096Z,3.23
2018-09-29T02:54:23.052Z,3.28
2018-09-29T02:55:23.029Z,3.23
2018-09-29T02:56:23.023Z,3.09
2018-09-29T02:57:22.985Z,3.13
2018-09-29T02:58:22.972Z,3.06
2018-09-29T02:59:22.934Z,3.13
2018-09-29T03:00:22.918Z,3.09
2018-09-29T03:01:22.899Z,3.13
2018-09-29T03:02:22.866Z,3.25
2018-09-29T03:03:22.857Z,3.18
2018-09-29T03:04:22.824Z,3.12
2018-09-29T03:05:22.812Z,3.09
2018-09-29T03:06:22.774Z,3.13
2018-09-29T03:07:22.749Z,3.07
2018-09-29T03:08:22.742Z,3.07
2018-09-29T03:09:22.699Z,3.03
2018-09-29T03:10:22.680Z,2.94
2018-09-29T03:11:22.656Z,2.91
2018-09-29T03:12:22.628Z,2.84
2018-09-29T03:13:22.621Z,2.79
2018-09-29T03:14:22.590Z,2.76
2018-09-29T03:15:22.568Z,2.95
2018-09-29T03:16:22.541Z,2.88
2018-09-29T03:17:22.513Z,2.88
2018-09-29T03:18:22.491Z,2.88
2018-09-29T03:19:22.557Z,2.88
2018-09-29T03:20:22.443Z,2.85
2018-09-29T03:21:22.420Z,2.87
2018-09-29T03:22:22.417Z,2.85
2018-09-29T03:23:22.383Z,2.87
2018-09-29T03:24:22.344Z,2.92
2018-09-29T03:25:22.322Z,3.05
2018-09-29T03:26:22.315Z,3.00
2018-09-29T03:27:22.296Z,2.95
2018-09-29T03:28:22.268Z,2.97
2018-09-29T03:29:22.232Z,2.89
2018-09-29T03:30:22.213Z,2.88
2018-09-29T03:31:22.191Z,2.87
2018-09-29T03:32:22.195Z,2.88
2018-09-29T03:33:22.134Z,2.81
2018-09-29T03:34:22.114Z,2.77
2018-09-29T03:35:22.086Z,2.81
2018-09-29T03:36:22.064Z,2.74
2018-09-29T03:37:22.045Z,2.69
2018-09-29T03:38:22.013Z,2.73
2018-09-29T03:39:22.000Z,2.73
2018-09-29T03:40:21.977Z,2.71
2018-09-29T03:41:21.950Z,2.66
2018-09-29T03:42:21.921Z,2.70
2018-09-29T03:43:21.903Z,2.67
2018-09-29T03:44:21.870Z,2.63
2018-09-29T03:45:21.864Z,2.64
2018-09-29T03:46:21.829Z,2.53
2018-09-29T03:47:21.807Z,2.52
2018-09-29T03:48:21.813Z,2.48
2018-09-29T03:49:21.756Z,2.38
2018-09-29T03:50:21.741Z,2.37
2018-09-29T03:51:21.728Z,2.38
2018-09-29T03:52:21.690Z,2.35
2018-09-29T03:53:21.720Z,2.37
2018-09-29T03:54:21.644Z,2.46
2018-09-29T03:55:21.623Z,2.41
2018-09-29T03:56:21.594Z,2.41
2018-09-29T03:57:21.577Z,2.40
2018-09-29T03:58:21.548Z,2.45
2018-09-29T03:59:21.525Z,2.40
2018-09-29T04:00:21.506Z,2.34
2018-09-29T04:01:21.473Z,2.22
2018-09-29T04:02:21.458Z,2.35
2018-09-29T04:03:21.445Z,2.26
2018-09-29T04:04:21.404Z,2.28
2018-09-29T04:05:21.381Z,2.27
2018-09-29T04:06:21.368Z,2.22
2018-09-29T04:07:21.332Z,2.30
2018-09-29T04:08:21.314Z,2.17
2018-09-29T04:09:21.297Z,2.27
2018-09-29T04:10:21.262Z,2.15
2018-09-29T04:11:21.243Z,2.31
2018-09-29T04:12:21.234Z,2.35
2018-09-29T04:13:21.199Z,2.38
2018-09-29T04:14:21.199Z,2.38
2018-09-29T04:15:21.153Z,2.37
2018-09-29T04:16:21.124Z,2.34
2018-09-29T04:17:21.090Z,2.34
2018-09-29T04:18:21.080Z,2.26
2018-09-29T04:19:21.051Z,2.15
2018-09-29T04:20:21.020Z,2.27
2018-09-29T04:21:20.996Z,2.16
2018-09-29T04:22:20.974Z,2.19
2018-09-29T04:23:20.957Z,2.16
2018-09-29T04:24:20.938Z,2.09
2018-09-29T04:25:20.900Z,2.09
2018-09-29T04:26:20.879Z,2.08
2018-09-29T04:27:20.859Z,2.10
2018-09-29T04:28:20.833Z,2.17
2018-09-29T04:29:20.804Z,2.12
2018-09-29T04:30:20.794Z,2.13
2018-09-29T04:31:20.766Z,2.17
2018-09-29T04:32:20.759Z,2.12
2018-09-29T04:33:20.719Z,2.22
2018-09-29T04:34:20.687Z,2.10
2018-09-29T04:35:20.665Z,2.12
2018-09-29T04:36:20.645Z,2.08
2018-09-29T04:37:20.621Z,2.08
2018-09-29T04:38:20.617Z,2.12
2018-09-29T04:39:20.581Z,2.08
2018-09-29T04:40:20.544Z,2.08
2018-09-29T04:41:20.528Z,2.01
2018-09-29T04:42:20.496Z,2.12
2018-09-29T04:43:20.524Z,2.06
2018-09-29T04:44:20.477Z,2.04
2018-09-29T04:45:20.452Z,2.06
2018-09-29T04:46:20.407Z,1.99
2018-09-29T04:47:20.398Z,2.06
2018-09-29T04:48:20.359Z,2.10
2018-09-29T04:49:20.342Z,2.04
2018-09-29T04:50:20.308Z,2.08
2018-09-29T04:51:20.304Z,2.08
2018-09-29T04:52:20.260Z,2.08
2018-09-29T04:53:20.237Z,2.08
2018-09-29T04:54:20.215Z,2.08
2018-09-29T04:55:20.196Z,2.08
2018-09-29T04:56:20.167Z,1.91
2018-09-29T04:57:20.156Z,1.98
2018-09-29T04:58:20.138Z,1.98
2018-09-29T04:59:20.105Z,1.97
2018-09-29T05:00:20.075Z,1.99
2018-09-29T05:01:20.710Z,1.93
2018-09-29T05:02:20.026Z,1.87
2018-09-29T05:03:20.007Z,1.72
2018-09-29T05:04:19.991Z,1.73
2018-09-29T05:05:19.965Z,1.69
2018-09-29T05:06:19.969Z,1.73
2018-09-29T05:07:19.900Z,1.73
2018-09-29T05:08:19.880Z,1.72
2018-09-29T05:09:19.853Z,1.72
2018-09-29T05:10:19.839Z,1.78
2018-09-29T05:11:19.810Z,1.80
2018-09-29T05:12:19.794Z,1.83
2018-09-29T05:13:19.762Z,1.82
2018-09-29T05:14:19.747Z,1.79
2018-09-29T05:15:19.715Z,1.73
2018-09-29T05:16:19.686Z,1.76
2018-09-29T05:17:19.667Z,1.75
2018-09-29T05:18:19.638Z,1.79
2018-09-29T05:19:19.616Z,1.71
2018-09-29T05:20:19.593Z,1.76
2018-09-29T05:21:19.587Z,1.72
2018-09-29T05:22:19.548Z,1.80
2018-09-29T05:23:19.563Z,1.87
2018-09-29T05:24:19.496Z,1.89
2018-09-29T05:25:19.510Z,1.87
2018-09-29T05:26:19.464Z,1.80
2018-09-29T05:27:19.443Z,1.76
2018-09-29T05:28:19.406Z,1.76
2018-09-29T05:29:19.371Z,1.71
2018-09-29T05:30:19.360Z,1.68
2018-09-29T05:31:19.335Z,1.60
2018-09-29T05:32:19.302Z,1.65
2018-09-29T05:33:19.284Z,1.65
2018-09-29T05:34:19.259Z,1.64
2018-09-29T05:35:19.235Z,1.65
2018-09-29T05:36:19.213Z,1.60
2018-09-29T05:37:19.188Z,1.65
2018-09-29T05:38:19.173Z,1.72
2018-09-29T05:39:19.191Z,1.87
2018-09-29T05:40:19.113Z,1.87
2018-09-29T05:41:19.094Z,1.89
2018-09-29T05:42:19.065Z,1.91
2018-09-29T05:43:19.043Z,1.85
2018-09-29T05:44:19.053Z,1.85
2018-09-29T05:45:18.992Z,1.93
2018-09-29T05:46:18.973Z,1.91
2018-09-29T05:47:18.963Z,1.90
2018-09-29T05:48:19.007Z,1.89
2018-09-29T05:49:18.895Z,1.82
2018-09-29T05:50:18.879Z,1.79
2018-09-29T05:51:18.866Z,1.89
2018-09-29T05:52:18.831Z,1.85
2018-09-29T05:53:18.803Z,1.85
2018-09-29T05:54:18.783Z,1.89
2018-09-29T05:55:18.761Z,1.98
2018-09-29T05:56:18.735Z,1.99
2018-09-29T05:57:18.715Z,2.01
2018-09-29T05:58:18.687Z,2.06
2018-09-29T05:59:18.687Z,2.08
2018-09-29T06:00:18.753Z,2.02
2018-09-29T06:01:18.621Z,2.10
2018-09-29T06:02:18.585Z,2.27
2018-09-29T06:03:18.565Z,2.22
2018-09-29T06:04:18.559Z,2.22
2018-09-29T06:05:18.571Z,2.27
2018-09-29T06:06:18.489Z,2.34
2018-09-29T06:07:18.614Z,2.37
2018-09-29T06:08:18.450Z,2.37
2018-09-29T06:09:18.431Z,2.40
2018-09-29T06:10:18.409Z,2.38
2018-09-29T06:11:18.379Z,2.49
2018-09-29T06:12:18.352Z,2.51
2018-09-29T06:13:18.409Z,2.52
2018-09-29T06:14:18.304Z,2.53
2018-09-29T06:15:18.279Z,2.59
2018-09-29T06:16:18.261Z,2.59
2018-09-29T06:17:18.230Z,2.59
2018-09-29T06:18:18.211Z,2.69
2018-09-29T06:19:18.189Z,2.81
2018-09-29T06:20:18.158Z,2.79
2018-09-29T06:21:18.136Z,2.79
2018-09-29T06:22:18.117Z,2.77
2018-09-29T06:23:18.092Z,2.89
2018-09-29T06:24:18.066Z,2.98
2018-09-29T06:25:18.047Z,2.91
2018-09-29T06:26:18.018Z,3.09
2018-09-29T06:27:17.995Z,3.07
2018-09-29T06:28:17.967Z,3.09
2018-09-29T06:29:17.947Z,3.09
2018-09-29T06:30:17.922Z,3.12
2018-09-29T06:31:17.902Z,3.12
2018-09-29T06:32:17.874Z,3.18
2018-09-29T06:33:17.851Z,3.21
2018-09-29T06:34:17.908Z,3.25
2018-09-29T06:35:17.810Z,3.36
2018-09-29T06:36:17.784Z,3.34
2018-09-29T06:37:17.759Z,3.40
2018-09-29T06:38:17.749Z,3.43
2018-09-29T06:39:17.734Z,3.49
2018-09-29T06:40:17.698Z,3.52
2018-09-29T06:41:17.667Z,3.49
2018-09-29T06:42:17.641Z,3.61
2018-09-29T06:43:17.613Z,3.54
2018-09-29T06:44:17.607Z,3.72
2018-09-29T06:45:17.577Z,3.72
2018-09-29T06:46:17.548Z,3.75
2018-09-29T06:47:17.524Z,3.76
2018-09-29T06:48:17.505Z,3.86
2018-09-29T06:49:17.478Z,3.92
2018-09-29T06:50:17.456Z,3.98
2018-09-29T06:51:17.427Z,4.04
2018-09-29T06:52:17.408Z,4.03
2018-09-29T06:53:17.387Z,4.06
2018-09-29T06:54:17.400Z,4.21
2018-09-29T06:55:17.348Z,4.26
2018-09-29T06:56:17.321Z,4.25
2018-09-29T06:57:17.291Z,4.34
2018-09-29T06:58:17.288Z,4.54
2018-09-29T06:59:17.249Z,4.59
2018-09-29T07:00:17.224Z,4.65
2018-09-29T07:01:17.236Z,4.67
2018-09-29T07:02:17.169Z,4.73
2018-09-29T07:03:17.149Z,4.70
2018-09-29T07:04:17.130Z,4.84
2018-09-29T07:05:17.110Z,4.92
2018-09-29T07:06:17.086Z,4.88
2018-09-29T07:07:17.066Z,5.02
2018-09-29T07:08:17.040Z,5.01
2018-09-29T07:09:17.014Z,5.01
2018-09-29T07:10:17.011Z,5.25
2018-09-29T07:11:16.967Z,5.22
2018-09-29T07:12:16.967Z,5.37
2018-09-29T07:13:17.011Z,5.35
2018-09-29T07:14:16.903Z,5.55
2018-09-29T07:15:16.875Z,5.59
2018-09-29T07:16:16.855Z,5.64
2018-09-29T07:17:16.833Z,5.74
2018-09-29T07:18:16.808Z,5.81
2018-09-29T07:19:16.792Z,5.89
2018-09-29T07:20:16.766Z,6.03
2018-09-29T07:21:16.751Z,6.06
2018-09-29T07:22:16.717Z,6.18
2018-09-29T07:23:16.710Z,6.16
2018-09-29T07:24:16.670Z,6.32
2018-09-29T07:25:16.693Z,6.44
2018-09-29T07:26:16.631Z,6.62
2018-09-29T07:27:16.608Z,6.76
2018-09-29T07:28:16.587Z,6.95
2018-09-29T07:29:16.569Z,6.97
2018-09-29T07:30:16.540Z,7.31
2018-09-29T07:31:16.521Z,7.62
2018-09-29T07:32:16.492Z,8.14
2018-09-29T07:33:16.474Z,8.63
2018-09-29T07:34:16.448Z,9.18
2018-09-29T07:35:16.425Z,9.61
2018-09-29T07:36:16.403Z,9.88
2018-09-29T07:37:16.400Z,9.96
2018-09-29T07:38:16.362Z,10.14
2018-09-29T07:39:16.346Z,10.42
2018-09-29T07:40:16.319Z,10.65
2018-09-29T07:41:16.297Z,10.84
2018-09-29T07:42:16.274Z,10.78
2018-09-29T07:43:16.255Z,10.66
2018-09-29T07:44:16.230Z,10.77
2018-09-29T07:45:16.211Z,10.55
2018-09-29T07:46:16.199Z,10.84
2018-09-29T07:47:16.174Z,11.07
2018-09-29T07:48:16.169Z,11.27
2018-09-29T07:49:16.292Z,11.57
2018-09-29T07:50:16.104Z,11.93
2018-09-29T07:51:16.089Z,12.02
2018-09-29T07:52:16.063Z,12.15
2018-09-29T07:53:16.057Z,12.38
2018-09-29T07:54:16.022Z,12.71
2018-09-29T07:55:16.006Z,12.85
2018-09-29T07:56:16.009Z,13.11
2018-09-29T07:57:15.967Z,13.46
2018-09-29T07:58:15.943Z,13.70
2018-09-29T07:59:15.924Z,14.01
2018-09-29T08:00:15.910Z,14.39
2018-09-29T08:01:15.892Z,14.44
2018-09-29T08:02:15.872Z,14.91
2018-09-29T08:03:15.853Z,15.05
2018-09-29T08:04:15.840Z,15.45
2018-09-29T08:05:15.812Z,15.52
2018-09-29T08:06:15.848Z,15.31
2018-09-29T08:07:15.777Z,14.91
2018-09-29T08:08:15.767Z,15.20
2018-09-29T08:09:15.736Z,15.09
2018-09-29T08:10:15.717Z,14.42
2018-09-29T08:11:15.700Z,14.32
2018-09-29T08:12:15.713Z,14.32
2018-09-29T08:13:15.666Z,14.29
2018-09-29T08:14:15.653Z,14.53
2018-09-29T08:15:15.630Z,14.54
2018-09-29T08:16:15.611Z,14.88
2018-09-29T08:17:15.603Z,15.02
2018-09-29T08:18:15.576Z,14.91
2018-09-29T08:19:15.563Z,14.93
2018-09-29T08:20:15.544Z,15.05
2018-09-29T08:21:15.535Z,15.38
2018-09-29T08:22:15.509Z,15.86
2018-09-29T08:23:15.493Z,16.38
2018-09-29T08:24:15.497Z,16.65
2018-09-29T08:25:15.458Z,16.71
2018-09-29T08:26:15.441Z,16.60
2018-09-29T08:27:15.423Z,16.50
2018-09-29T08:28:15.408Z,16.58
2018-09-29T08:29:15.394Z,16.45
2018-09-29T08:30:15.375Z,16.27
2018-09-29T08:31:15.362Z,16.23
2018-09-29T08:32:15.416Z,16.34
2018-09-29T08:33:15.330Z,16.31
2018-09-29T08:34:15.311Z,16.50
2018-09-29T08:35:15.294Z,16.42
2018-09-29T08:36:15.285Z,16.55
2018-09-29T08:37:15.270Z,16.78
2018-09-29T08:38:15.247Z,16.88
2018-09-29T08:39:15.237Z,16.89
2018-09-29T08:40:15.220Z,16.92
2018-09-29T08:41:15.207Z,17.15
2018-09-29T08:42:15.186Z,17.70
2018-09-29T08:43:15.167Z,17.99
2018-09-29T08:44:15.199Z,18.13
2018-09-29T08:45:15.143Z,17.94
2018-09-29T08:46:15.133Z,18.27
2018-09-29T08:47:15.110Z,18.27
2018-09-29T08:48:15.091Z,18.25
2018-09-29T08:49:15.079Z,18.00
2018-09-29T08:50:15.066Z,18.24
2018-09-29T08:51:15.047Z,18.50
2018-09-29T08:52:15.031Z,17.89
2018-09-29T08:53:15.070Z,17.67
2018-09-29T08:54:15.005Z,17.55
2018-09-29T08:55:14.992Z,17.87
2018-09-29T08:56:14.976Z,17.92
2018-09-29T08:57:14.961Z,18.07
2018-09-29T08:58:14.949Z,18.39
2018-09-29T08:59:14.929Z,18.47
2018-09-29T09:00:14.917Z,18.73
2018-09-29T09:01:14.911Z,18.42
2018-09-29T09:02:14.893Z,18.57
2018-09-29T09:03:14.879Z,18.62
2018-09-29T09:04:14.856Z,18.27
2018-09-29T09:05:14.841Z,17.88
2018-09-29T09:06:14.824Z,17.66
2018-09-29T09:07:14.811Z,17.66
2018-09-29T09:08:14.801Z,17.66
2018-09-29T09:09:14.840Z,17.54
2018-09-29T09:10:14.785Z,17.55
2018-09-29T09:11:14.752Z,17.54
2018-09-29T09:12:14.746Z,17.94
2018-09-29T09:13:14.733Z,18.28
2018-09-29T09:14:14.726Z,17.97
2018-09-29T09:15:14.705Z,18.25
2018-09-29T09:16:14.695Z,17.88
2018-09-29T09:17:14.669Z,17.79
2018-09-29T09:18:14.653Z,18.18
2018-09-29T09:19:14.647Z,18.67
2018-09-29T09:20:14.630Z,19.31
2018-09-29T09:21:14.613Z,18.24
2018-09-29T09:22:14.599Z,18.39
2018-09-29T09:23:14.644Z,18.72
2018-09-29T09:24:14.654Z,18.54
2018-09-29T09:25:14.557Z,18.68
2018-09-29T09:26:14.543Z,19.11
2018-09-29T09:27:14.528Z,19.40
2018-09-29T09:28:14.520Z,18.76
2018-09-29T09:29:14.507Z,18.92
2018-09-29T09:30:14.566Z,18.98
2018-09-29T09:31:14.481Z,18.52
2018-09-29T09:32:14.466Z,18.13
2018-09-29T09:33:14.459Z,18.02
2018-09-29T09:34:14.436Z,18.24
2018-09-29T09:35:14.424Z,18.65
2018-09-29T09:36:14.415Z,18.79
2018-09-29T09:37:14.392Z,18.94
2018-09-29T09:38:14.401Z,19.15
2018-09-29T09:39:14.411Z,19.68
2018-09-29T09:40:14.376Z,19.50
2018-09-29T09:41:14.359Z,19.51
2018-09-29T09:42:14.341Z,19.57
2018-09-29T09:43:14.311Z,19.51
2018-09-29T09:44:14.298Z,19.36
2018-09-29T09:45:14.292Z,19.36
2018-09-29T09:46:14.292Z,19.78
2018-09-29T09:47:14.267Z,20.27
2018-09-29T09:48:14.254Z,20.33
2018-09-29T09:49:14.240Z,20.23
2018-09-29T09:50:14.225Z,20.56
2018-09-29T09:51:14.229Z,20.79
2018-09-29T09:52:14.201Z,20.31
2018-09-29T09:53:14.190Z,20.02
2018-09-29T09:54:14.180Z,19.70
2018-09-29T09:55:14.161Z,19.29
2018-09-29T09:56:14.157Z,19.47
2018-09-29T09:57:14.137Z,19.94
2018-09-29T09:58:14.131Z,20.16
2018-09-29T09:59:14.119Z,19.70
2018-09-29T10:00:14.105Z,19.50
2018-09-29T10:01:14.096Z,19.23
2018-09-29T10:02:14.084Z,18.92
2018-09-29T10:03:14.068Z,18.73
2018-09-29T10:04:14.058Z,18.84
2018-09-29T10:05:14.048Z,19.15
2018-09-29T10:06:14.039Z,19.14
2018-09-29T10:07:14.020Z,19.32
2018-09-29T10:08:14.014Z,19.31
2018-09-29T10:09:13.994Z,19.20
2018-09-29T10:10:13.991Z,19.40
2018-09-29T10:11:13.979Z,18.68
2018-09-29T10:12:13.973Z,18.47
2018-09-29T10:13:13.956Z,18.29
2018-09-29T10:14:13.943Z,18.67
2018-09-29T10:15:13.936Z,19.39
2018-09-29T10:16:13.930Z,20.00
2018-09-29T10:17:13.914Z,20.42
2018-09-29T10:18:13.897Z,20.30
2018-09-29T10:19:13.885Z,20.16
2018-09-29T10:20:13.881Z,19.68
2018-09-29T10:21:13.866Z,19.73
2018-09-29T10:22:13.856Z,19.84
2018-09-29T10:23:13.847Z,19.68
2018-09-29T10:24:13.834Z,18.99
2018-09-29T10:25:13.824Z,19.21
2018-09-29T10:26:13.815Z,19.48
2018-09-29T10:27:13.811Z,19.25
2018-09-29T10:28:13.795Z,19.70
2018-09-29T10:29:13.788Z,20.02
2018-09-29T10:30:13.780Z,20.02
2018-09-29T10:31:13.770Z,19.75
2018-09-29T10:32:13.760Z,19.69
2018-09-29T10:33:13.747Z,19.55
2018-09-29T10:34:13.740Z,19.38
2018-09-29T10:35:13.728Z,19.25
2018-09-29T10:36:13.731Z,19.35
2018-09-29T10:37:13.715Z,19.54
2018-09-29T10:38:13.700Z,19.53
2018-09-29T10:39:13.689Z,19.51
2018-09-29T10:40:13.689Z,19.42
2018-09-29T10:41:13.680Z,19.55
2018-09-29T10:42:13.670Z,19.42
2018-09-29T10:43:13.654Z,19.18
2018-09-29T10:44:13.707Z,18.77
2018-09-29T10:45:13.645Z,18.76
2018-09-29T10:46:13.635Z,18.92
2018-09-29T10:47:13.629Z,18.62
2018-09-29T10:48:13.613Z,18.95
2018-09-29T10:49:13.606Z,19.38
2018-09-29T10:50:13.608Z,19.33
2018-09-29T10:51:13.593Z,19.28
2018-09-29T10:52:13.584Z,19.48
2018-09-29T10:53:13.574Z,19.70
2018-09-29T10:54:13.567Z,19.66
2018-09-29T10:55:13.556Z,19.70
2018-09-29T10:56:13.547Z,19.75
2018-09-29T10:57:13.540Z,19.88
2018-09-29T10:58:13.530Z,20.02
2018-09-29T10:59:13.598Z,20.20
2018-09-29T11:00:13.515Z,20.02
2018-09-29T11:01:13.518Z,20.05
2018-09-29T11:02:13.509Z,19.84
2018-09-29T11:03:13.496Z,19.93
2018-09-29T11:04:13.528Z,19.88
2018-09-29T11:05:13.480Z,20.13
2018-09-29T11:06:13.473Z,20.33
2018-09-29T11:07:13.467Z,20.27
2018-09-29T11:08:13.478Z,20.05
2018-09-29T11:09:13.464Z,19.48
2018-09-29T11:10:13.445Z,19.17
2018-09-29T11:11:13.470Z,19.11
2018-09-29T11:12:13.438Z,19.35
2018-09-29T11:13:13.431Z,19.21
2018-09-29T11:14:13.452Z,18.97
2018-09-29T11:15:13.416Z,18.74
2018-09-29T11:16:13.426Z,18.72
2018-09-29T11:17:13.404Z,18.87
2018-09-29T11:18:13.407Z,19.06
2018-09-29T11:19:13.393Z,19.42
2018-09-29T11:20:13.377Z,19.15
2018-09-29T11:21:13.372Z,18.82
2018-09-29T11:22:13.366Z,18.42
2018-09-29T11:23:13.365Z,18.65
2018-09-29T11:24:13.353Z,18.74
2018-09-29T11:25:13.350Z,18.67
2018-09-29T11:26:13.343Z,18.77
2018-09-29T11:27:13.335Z,18.47
2018-09-29T11:28:13.429Z,18.33
2018-09-29T11:29:13.323Z,18.49
2018-09-29T11:30:13.324Z,18.28
2018-09-29T11:31:13.308Z,18.49
2018-09-29T11:32:13.302Z,18.49
2018-09-29T11:33:13.305Z,18.59
2018-09-29T11:34:13.289Z,18.55
2018-09-29T11:35:13.282Z,18.67
2018-09-29T11:36:13.279Z,18.54
2018-09-29T11:37:13.269Z,18.49
2018-09-29T11:38:13.270Z,18.49
2018-09-29T11:39:13.285Z,18.43
2018-09-29T11:40:13.253Z,18.65
2018-09-29T11:41:13.252Z,18.65
2018-09-29T11:42:13.238Z,18.91
2018-09-29T11:43:13.240Z,18.99
2018-09-29T11:44:13.231Z,19.06
2018-09-29T11:45:13.218Z,19.42
2018-09-29T11:46:13.216Z,19.36
2018-09-29T11:47:13.218Z,19.11
2018-09-29T11:48:13.203Z,19.43
2018-09-29T11:49:13.199Z,19.39
2018-09-29T11:50:13.199Z,19.50
2018-09-29T11:51:13.187Z,19.58
2018-09-29T11:52:13.183Z,19.60
2018-09-29T11:53:13.179Z,19.66
2018-09-29T11:54:13.171Z,19.14
2018-09-29T11:55:13.164Z,18.72
2018-09-29T11:56:13.176Z,18.65
2018-09-29T11:57:13.155Z,18.76
2018-09-29T11:58:13.154Z,19.11
2018-09-29T11:59:13.145Z,19.40
2018-09-29T12:00:13.132Z,19.40
2018-09-29T12:01:13.126Z,19.48
2018-09-29T12:02:13.165Z,19.48
2018-09-29T12:03:13.127Z,19.43
2018-09-29T12:04:13.110Z,19.13
2018-09-29T12:05:13.113Z,19.11
2018-09-29T12:06:13.183Z,19.20
2018-09-29T12:07:13.137Z,19.17
2018-09-29T12:08:13.094Z,19.35
2018-09-29T12:09:13.123Z,19.51
2018-09-29T12:10:13.078Z,19.70
2018-09-29T12:11:13.074Z,20.06
2018-09-29T12:12:13.071Z,19.68
2018-09-29T12:13:13.068Z,19.65
2018-09-29T12:14:13.062Z,19.72
2018-09-29T12:15:13.058Z,19.48
2018-09-29T12:16:13.049Z,19.01
2018-09-29T12:17:13.043Z,18.84
2018-09-29T12:18:13.039Z,18.94
2018-09-29T12:19:13.033Z,19.01
2018-09-29T12:20:13.033Z,19.11
2018-09-29T12:21:13.030Z,18.65
2018-09-29T12:22:13.045Z,18.65
2018-09-29T12:23:13.017Z,18.70
2018-09-29T12:24:13.014Z,18.86
2018-09-29T12:25:13.001Z,19.21
2018-09-29T12:26:12.994Z,19.53
2018-09-29T12:27:12.991Z,19.47
2018-09-29T12:28:12.991Z,19.08
2018-09-29T12:29:12.988Z,19.28
2018-09-29T12:30:12.976Z,19.48
2018-09-29T12:31:12.971Z,19.29
2018-09-29T12:32:12.972Z,19.08
2018-09-29T12:33:12.965Z,18.97
2018-09-29T12:34:12.953Z,19.20
2018-09-29T12:35:12.950Z,19.21
2018-09-29T12:36:12.952Z,19.28
2018-09-29T12:37:13.125Z,19.29
2018-09-29T12:38:12.940Z,19.25
2018-09-29T12:39:12.928Z,19.39
2018-09-29T12:40:12.931Z,19.51
2018-09-29T12:41:12.925Z,19.31
2018-09-29T12:42:12.937Z,19.31
2018-09-29T12:43:12.924Z,19.65
2018-09-29T12:44:12.902Z,19.73
2018-09-29T12:45:12.907Z,19.91
2018-09-29T12:46:12.896Z,20.15
2018-09-29T12:47:12.886Z,20.39
2018-09-29T12:48:12.892Z,20.69
2018-09-29T12:49:12.876Z,20.71
2018-09-29T12:50:12.927Z,20.69
2018-09-29T12:51:12.873Z,20.80
2018-09-29T12:52:12.868Z,20.20
2018-09-29T12:53:12.857Z,20.13
2018-09-29T12:54:12.852Z,20.31
2018-09-29T12:55:12.851Z,20.25
2018-09-29T12:56:12.845Z,19.91
2018-09-29T12:57:12.838Z,19.87
2018-09-29T12:58:12.840Z,20.13
2018-09-29T12:59:12.838Z,20.30
2018-09-29T13:00:12.832Z,20.35
2018-09-29T13:01:12.824Z,20.65
2018-09-29T13:02:12.812Z,20.34
2018-09-29T13:03:12.809Z,20.27
2018-09-29T13:04:12.806Z,20.28
2018-09-29T13:05:12.818Z,20.47
2018-09-29T13:06:12.800Z,20.65
2018-09-29T13:07:12.794Z,20.58